PUA2603 SLLP-SPZO
Flight info
| Callsign | PUA2603 |
|---|---|
| Flight time | 0h 50m |
| Altitude | 38000 |
| Route | ELAKO UM657 JUL UV11 ILMOX |
| Aircraft | A20N/M-SDE2E3FGHIRWXY/LB1 |
Departure
| Time | 2026-04-23 17:36 |
|---|---|
| Airport | El Alto International Airport (SLLP) |
Arrival
| Time | 2026-04-23 18:26 |
|---|---|
| Airport | Alejandro Velasco Astete International Airport (SPZO) |
| Time | Latitude | Longitude | Altitude | Speed | Heading |
|---|---|---|---|---|---|
| 2026-04-23 17:21 | -16.50943 | -68.17761 | 13367 ft | 0 kts | 34° |
| 2026-04-23 17:27 | -16.50943 | -68.17762 | 13368 ft | 0 kts | 34° |
| 2026-04-23 17:27 | -16.50956 | -68.17769 | 13368 ft | 2 kts | 11° |
| 2026-04-23 17:27 | -16.50971 | -68.17770 | 13369 ft | 2 kts | 352° |
| 2026-04-23 17:28 | -16.50986 | -68.17766 | 13370 ft | 2 kts | 333° |
| 2026-04-23 17:28 | -16.50999 | -68.17757 | 13370 ft | 2 kts | 314° |
| 2026-04-23 17:28 | -16.51007 | -68.17744 | 13369 ft | 1 kts | 294° |
| 2026-04-23 17:28 | -16.51008 | -68.17742 | 13368 ft | 0 kts | 294° |
| 2026-04-23 17:30 | -16.51007 | -68.17744 | 13365 ft | 1 kts | 294° |
| 2026-04-23 17:30 | -16.50999 | -68.17774 | 13364 ft | 7 kts | 279° |
| 2026-04-23 17:31 | -16.50995 | -68.17850 | 13360 ft | 13 kts | 271° |
| 2026-04-23 17:31 | -16.51056 | -68.17941 | 13352 ft | 18 kts | 225° |
| 2026-04-23 17:31 | -16.51162 | -68.18055 | 13341 ft | 24 kts | 227° |
| 2026-04-23 17:31 | -16.51287 | -68.18215 | 13325 ft | 30 kts | 239° |
| 2026-04-23 17:32 | -16.51350 | -68.18437 | 13310 ft | 34 kts | 265° |
| 2026-04-23 17:32 | -16.51353 | -68.18698 | 13294 ft | 37 kts | 270° |
| 2026-04-23 17:32 | -16.51348 | -68.18978 | 13276 ft | 38 kts | 279° |
| 2026-04-23 17:32 | -16.51337 | -68.19254 | 13263 ft | 38 kts | 272° |
| 2026-04-23 17:33 | -16.51328 | -68.19533 | 13251 ft | 38 kts | 271° |
| 2026-04-23 17:33 | -16.51320 | -68.19813 | 13238 ft | 39 kts | 272° |
| 2026-04-23 17:33 | -16.51310 | -68.20104 | 13221 ft | 40 kts | 272° |
| 2026-04-23 17:33 | -16.51300 | -68.20399 | 13208 ft | 41 kts | 272° |
| 2026-04-23 17:34 | -16.51291 | -68.20702 | 13190 ft | 42 kts | 271° |
| 2026-04-23 17:34 | -16.51276 | -68.20972 | 13175 ft | 27 kts | 283° |
| 2026-04-23 17:34 | -16.51276 | -68.21038 | 13172 ft | 0 kts | 90° |
| 2026-04-23 17:35 | -16.51276 | -68.21040 | 13172 ft | 0 kts | 90° |
| 2026-04-23 17:35 | -16.51284 | -68.20816 | 13184 ft | 68 kts | 93° |
| 2026-04-23 17:35 | -16.51323 | -68.19733 | 13242 ft | 152 kts | 91° |
| 2026-04-23 17:36 | -16.51372 | -68.18464 | 13339 ft | 197 kts | 94° |
| 2026-04-23 17:36 | -16.51448 | -68.17020 | 14027 ft | 199 kts | 93° |
| 2026-04-23 17:36 | -16.51469 | -68.15595 | 14830 ft | 200 kts | 90° |
| 2026-04-23 17:36 | -16.51485 | -68.14179 | 15415 ft | 202 kts | 98° |
| 2026-04-23 17:37 | -16.52051 | -68.12794 | 15689 ft | 217 kts | 131° |
| 2026-04-23 17:37 | -16.53320 | -68.11912 | 15955 ft | 232 kts | 163° |
| 2026-04-23 17:37 | -16.56457 | -68.12938 | 16381 ft | 269 kts | 235° |
| 2026-04-23 17:38 | -16.57154 | -68.14777 | 16620 ft | 287 kts | 264° |
| 2026-04-23 17:38 | -16.57202 | -68.16948 | 16641 ft | 315 kts | 272° |
| 2026-04-23 17:38 | -16.57094 | -68.19320 | 16645 ft | 343 kts | 273° |
| 2026-04-23 17:38 | -16.57007 | -68.21898 | 16646 ft | 369 kts | 271° |
| 2026-04-23 17:39 | -16.56971 | -68.24660 | 16645 ft | 393 kts | 270° |
| 2026-04-23 17:39 | -16.56975 | -68.27608 | 16647 ft | 414 kts | 270° |
| 2026-04-23 17:39 | -16.56998 | -68.30666 | 16686 ft | 431 kts | 269° |
| 2026-04-23 17:39 | -16.57293 | -68.33827 | 16904 ft | 443 kts | 258° |
| 2026-04-23 17:40 | -16.58313 | -68.36867 | 17318 ft | 448 kts | 244° |
| 2026-04-23 17:40 | -16.59910 | -68.39590 | 17954 ft | 446 kts | 236° |
| 2026-04-23 17:40 | -16.61663 | -68.42244 | 18548 ft | 443 kts | 236° |
| 2026-04-23 17:40 | -16.63369 | -68.44967 | 19092 ft | 442 kts | 238° |
| 2026-04-23 17:41 | -16.64914 | -68.47743 | 19614 ft | 440 kts | 246° |
| 2026-04-23 17:41 | -16.65442 | -68.53955 | 20561 ft | 436 kts | 284° |
| 2026-04-23 17:41 | -16.64305 | -68.56875 | 21050 ft | 433 kts | 301° |
| 2026-04-23 17:42 | -16.60237 | -68.61485 | 22087 ft | 429 kts | 316° |
| 2026-04-23 17:42 | -16.58088 | -68.63633 | 22594 ft | 429 kts | 316° |
| 2026-04-23 17:42 | -16.55935 | -68.65802 | 23113 ft | 430 kts | 316° |
| 2026-04-23 17:43 | -16.53812 | -68.67957 | 23668 ft | 429 kts | 316° |
| 2026-04-23 17:43 | -16.51693 | -68.70116 | 24298 ft | 428 kts | 316° |
| 2026-04-23 17:43 | -16.49545 | -68.72311 | 24676 ft | 434 kts | 316° |
| 2026-04-23 17:43 | -16.47360 | -68.74546 | 24870 ft | 444 kts | 316° |
| 2026-04-23 17:44 | -16.45147 | -68.76814 | 25057 ft | 453 kts | 315° |
| 2026-04-23 17:44 | -16.42881 | -68.79137 | 25235 ft | 462 kts | 315° |
| 2026-04-23 17:44 | -16.38226 | -68.83908 | 25564 ft | 478 kts | 315° |
| 2026-04-23 17:45 | -16.35827 | -68.86366 | 25710 ft | 485 kts | 315° |
| 2026-04-23 17:45 | -16.30986 | -68.91325 | 26280 ft | 489 kts | 315° |
| 2026-04-23 17:45 | -16.28574 | -68.93794 | 27032 ft | 483 kts | 315° |
| 2026-04-23 17:46 | -16.24482 | -68.97995 | 32892 ft | 353 kts | 316° |
| 2026-04-23 17:46 | -16.22931 | -68.99609 | 35027 ft | 311 kts | 317° |
| 2026-04-23 17:46 | -16.21405 | -69.01194 | 35324 ft | 315 kts | 317° |
| 2026-04-23 17:47 | -16.19802 | -69.02821 | 35332 ft | 326 kts | 318° |
| 2026-04-23 17:47 | -16.18160 | -69.04480 | 35341 ft | 337 kts | 318° |
| 2026-04-23 17:47 | -16.14709 | -69.07986 | 35358 ft | 359 kts | 317° |
| 2026-04-23 17:48 | -16.12923 | -69.09804 | 35512 ft | 365 kts | 317° |
| 2026-04-23 17:48 | -16.11103 | -69.11661 | 35680 ft | 371 kts | 317° |
| 2026-04-23 17:48 | -16.09237 | -69.13567 | 35845 ft | 377 kts | 317° |
| 2026-04-23 17:48 | -16.07381 | -69.15461 | 35999 ft | 383 kts | 317° |
| 2026-04-23 17:49 | -16.05457 | -69.17426 | 36155 ft | 388 kts | 317° |
| 2026-04-23 17:49 | -16.03533 | -69.19390 | 36302 ft | 393 kts | 317° |
| 2026-04-23 17:49 | -16.01573 | -69.21389 | 36447 ft | 398 kts | 317° |
| 2026-04-23 17:49 | -15.99580 | -69.23420 | 36588 ft | 403 kts | 317° |
| 2026-04-23 17:50 | -15.97584 | -69.25462 | 36718 ft | 408 kts | 316° |
| 2026-04-23 17:50 | -15.93776 | -69.29876 | 36972 ft | 418 kts | 311° |
| 2026-04-23 17:50 | -15.92002 | -69.32301 | 37093 ft | 423 kts | 308° |
| 2026-04-23 17:51 | -15.90367 | -69.34815 | 37209 ft | 428 kts | 304° |
| 2026-04-23 17:51 | -15.88833 | -69.37482 | 37325 ft | 433 kts | 302° |
| 2026-04-23 17:51 | -15.85895 | -69.42932 | 37538 ft | 439 kts | 302° |
| 2026-04-23 17:52 | -15.84410 | -69.45694 | 37636 ft | 442 kts | 302° |
| 2026-04-23 17:52 | -15.81383 | -69.51308 | 37870 ft | 446 kts | 302° |
| 2026-04-23 17:52 | -15.79881 | -69.54091 | 38083 ft | 445 kts | 302° |
| 2026-04-23 17:53 | -15.76876 | -69.59650 | 38533 ft | 443 kts | 302° |
| 2026-04-23 17:53 | -15.75388 | -69.62402 | 38737 ft | 443 kts | 302° |
| 2026-04-23 17:53 | -15.73889 | -69.65170 | 38864 ft | 443 kts | 302° |
| 2026-04-23 17:54 | -15.72389 | -69.67938 | 38864 ft | 443 kts | 302° |
| 2026-04-23 17:54 | -15.67871 | -69.76277 | 38867 ft | 443 kts | 302° |
| 2026-04-23 17:55 | -15.63346 | -69.84618 | 38860 ft | 444 kts | 302° |
| 2026-04-23 17:56 | -15.60331 | -69.90175 | 38833 ft | 444 kts | 302° |
| 2026-04-23 17:56 | -15.55778 | -69.98555 | 38785 ft | 444 kts | 302° |
| 2026-04-23 17:57 | -15.52753 | -70.04118 | 38757 ft | 443 kts | 302° |
| 2026-04-23 17:58 | -15.47774 | -70.12117 | 38686 ft | 442 kts | 310° |
| 2026-04-23 17:58 | -15.43733 | -70.16893 | 38680 ft | 440 kts | 316° |
| 2026-04-23 17:59 | -15.39191 | -70.21108 | 38693 ft | 438 kts | 323° |
| 2026-04-23 17:59 | -15.34362 | -70.24966 | 38737 ft | 438 kts | 324° |
| 2026-04-23 18:00 | -15.29517 | -70.28818 | 38790 ft | 439 kts | 324° |
| 2026-04-23 18:00 | -15.24688 | -70.32658 | 38809 ft | 439 kts | 324° |
| 2026-04-23 18:01 | -15.19820 | -70.36529 | 38842 ft | 439 kts | 324° |
| 2026-04-23 18:01 | -15.14962 | -70.40393 | 38866 ft | 439 kts | 324° |
| 2026-04-23 18:02 | -15.10933 | -70.43596 | 38869 ft | 439 kts | 324° |
| 2026-04-23 18:02 | -15.05281 | -70.48086 | 38875 ft | 440 kts | 324° |
| 2026-04-23 18:03 | -15.00397 | -70.51964 | 38885 ft | 439 kts | 324° |
| 2026-04-23 18:03 | -14.95547 | -70.55811 | 38898 ft | 440 kts | 324° |
| 2026-04-23 18:04 | -14.90704 | -70.59654 | 38908 ft | 438 kts | 324° |
| 2026-04-23 18:04 | -14.89901 | -70.60290 | 38911 ft | 438 kts | 324° |
| 2026-04-23 18:06 | -14.71711 | -70.74699 | 38952 ft | 437 kts | 324° |
| 2026-04-23 18:06 | -14.69282 | -70.76622 | 38813 ft | 439 kts | 324° |
| 2026-04-23 18:06 | -14.66852 | -70.78546 | 38225 ft | 437 kts | 324° |
| 2026-04-23 18:06 | -14.64424 | -70.80469 | 37519 ft | 435 kts | 324° |
| 2026-04-23 18:07 | -14.62016 | -70.82373 | 36720 ft | 434 kts | 324° |
| 2026-04-23 18:07 | -14.59600 | -70.84280 | 36209 ft | 426 kts | 324° |
| 2026-04-23 18:07 | -14.57287 | -70.86103 | 35856 ft | 418 kts | 324° |
| 2026-04-23 18:07 | -14.54976 | -70.87922 | 35397 ft | 413 kts | 324° |
| 2026-04-23 18:08 | -14.53435 | -70.89135 | 35077 ft | 411 kts | 324° |
| 2026-04-23 18:08 | -14.50449 | -70.91486 | 34493 ft | 407 kts | 324° |
| 2026-04-23 18:08 | -14.48205 | -70.93252 | 34033 ft | 404 kts | 323° |
| 2026-04-23 18:08 | -14.45965 | -70.95018 | 33565 ft | 401 kts | 324° |
| 2026-04-23 18:09 | -14.43752 | -70.96759 | 33146 ft | 399 kts | 323° |
| 2026-04-23 18:09 | -14.41548 | -70.98495 | 32730 ft | 398 kts | 323° |
| 2026-04-23 18:09 | -14.39347 | -71.00230 | 32318 ft | 395 kts | 323° |
| 2026-04-23 18:09 | -14.37154 | -71.01958 | 31878 ft | 392 kts | 323° |
| 2026-04-23 18:10 | -14.35002 | -71.03655 | 31423 ft | 389 kts | 323° |
| 2026-04-23 18:10 | -14.32878 | -71.05329 | 30952 ft | 387 kts | 323° |
| 2026-04-23 18:10 | -14.30733 | -71.07018 | 30475 ft | 385 kts | 323° |
| 2026-04-23 18:10 | -14.28605 | -71.08694 | 29986 ft | 383 kts | 323° |
| 2026-04-23 18:11 | -14.26484 | -71.10363 | 29481 ft | 381 kts | 323° |
| 2026-04-23 18:11 | -14.24397 | -71.12006 | 29002 ft | 380 kts | 323° |
| 2026-04-23 18:11 | -14.22286 | -71.13666 | 28516 ft | 378 kts | 323° |
| 2026-04-23 18:11 | -14.20205 | -71.15301 | 28048 ft | 376 kts | 323° |
| 2026-04-23 18:12 | -14.18133 | -71.16930 | 27612 ft | 373 kts | 323° |
| 2026-04-23 18:12 | -14.16089 | -71.18536 | 27180 ft | 371 kts | 323° |
| 2026-04-23 18:12 | -14.14023 | -71.20159 | 26733 ft | 369 kts | 323° |
| 2026-04-23 18:12 | -14.12005 | -71.21744 | 26307 ft | 366 kts | 323° |
| 2026-04-23 18:13 | -14.09963 | -71.23348 | 25881 ft | 364 kts | 323° |
| 2026-04-23 18:13 | -14.07967 | -71.24914 | 25464 ft | 362 kts | 323° |
| 2026-04-23 18:13 | -14.05958 | -71.26491 | 25070 ft | 359 kts | 323° |
| 2026-04-23 18:13 | -14.03983 | -71.28041 | 24667 ft | 357 kts | 323° |
| 2026-04-23 18:14 | -14.02013 | -71.29587 | 24266 ft | 355 kts | 323° |
| 2026-04-23 18:14 | -14.00045 | -71.31131 | 23865 ft | 352 kts | 323° |
| 2026-04-23 18:14 | -13.98102 | -71.32654 | 23475 ft | 351 kts | 323° |
| 2026-04-23 18:14 | -13.96169 | -71.34171 | 23108 ft | 349 kts | 323° |
| 2026-04-23 18:15 | -13.94226 | -71.35692 | 22731 ft | 348 kts | 323° |
| 2026-04-23 18:15 | -13.92316 | -71.37191 | 22321 ft | 348 kts | 323° |
| 2026-04-23 18:15 | -13.90379 | -71.38707 | 21923 ft | 349 kts | 323° |
| 2026-04-23 18:15 | -13.88454 | -71.40215 | 21520 ft | 349 kts | 323° |
| 2026-04-23 18:16 | -13.86504 | -71.41742 | 21091 ft | 349 kts | 323° |
| 2026-04-23 18:16 | -13.84580 | -71.43249 | 20681 ft | 349 kts | 323° |
| 2026-04-23 18:16 | -13.82657 | -71.44756 | 20277 ft | 348 kts | 323° |
| 2026-04-23 18:17 | -13.78859 | -71.47732 | 19422 ft | 334 kts | 324° |
| 2026-04-23 18:17 | -13.77047 | -71.49152 | 19247 ft | 313 kts | 324° |
| 2026-04-23 18:17 | -13.75360 | -71.50475 | 19217 ft | 295 kts | 324° |
| 2026-04-23 18:17 | -13.73775 | -71.51717 | 19168 ft | 280 kts | 324° |
| 2026-04-23 18:18 | -13.72253 | -71.52908 | 19105 ft | 267 kts | 324° |
| 2026-04-23 18:18 | -13.70812 | -71.54036 | 19038 ft | 255 kts | 324° |
| 2026-04-23 18:18 | -13.69407 | -71.55132 | 18963 ft | 252 kts | 324° |
| 2026-04-23 18:18 | -13.68017 | -71.56216 | 18883 ft | 252 kts | 324° |
| 2026-04-23 18:19 | -13.66610 | -71.57316 | 18796 ft | 251 kts | 324° |
| 2026-04-23 18:19 | -13.65245 | -71.58451 | 18821 ft | 253 kts | 313° |
| 2026-04-23 18:19 | -13.64346 | -71.59959 | 18683 ft | 250 kts | 292° |
| 2026-04-23 18:19 | -13.63764 | -71.61656 | 18245 ft | 252 kts | 289° |
| 2026-04-23 18:20 | -13.63223 | -71.63354 | 17750 ft | 252 kts | 290° |
| 2026-04-23 18:20 | -13.62653 | -71.65096 | 16872 ft | 269 kts | 291° |
| 2026-04-23 18:20 | -13.62033 | -71.66947 | 15965 ft | 279 kts | 289° |
| 2026-04-23 18:20 | -13.61561 | -71.68872 | 15537 ft | 271 kts | 283° |
| 2026-04-23 18:21 | -13.61159 | -71.70657 | 15551 ft | 251 kts | 287° |
| 2026-04-23 18:21 | -13.60617 | -71.72320 | 15230 ft | 240 kts | 292° |
| 2026-04-23 18:21 | -13.60029 | -71.73881 | 14725 ft | 231 kts | 294° |
| 2026-04-23 18:21 | -13.59443 | -71.75379 | 14218 ft | 219 kts | 294° |
| 2026-04-23 18:22 | -13.58891 | -71.76775 | 13813 ft | 207 kts | 294° |
| 2026-04-23 18:22 | -13.58363 | -71.78104 | 13554 ft | 194 kts | 294° |
| 2026-04-23 18:22 | -13.57877 | -71.79335 | 13373 ft | 180 kts | 295° |
| 2026-04-23 18:22 | -13.57400 | -71.80534 | 13371 ft | 179 kts | 294° |
| 2026-04-23 18:23 | -13.57089 | -71.81314 | 13365 ft | 179 kts | 294° |
| 2026-04-23 18:23 | -13.56136 | -71.84070 | 13012 ft | 173 kts | 291° |
| 2026-04-23 18:24 | -13.55221 | -71.86298 | 12224 ft | 164 kts | 303° |
| 2026-04-23 18:24 | -13.54643 | -71.87289 | 11895 ft | 159 kts | 302° |
| 2026-04-23 18:24 | -13.54193 | -71.88329 | 11656 ft | 161 kts | 289° |
| 2026-04-23 18:25 | -13.53861 | -71.90609 | 11234 ft | 162 kts | 277° |
| 2026-04-23 18:25 | -13.53782 | -71.91769 | 10975 ft | 162 kts | 275° |
| 2026-04-23 18:25 | -13.53674 | -71.92909 | 10792 ft | 157 kts | 279° |
| 2026-04-23 18:25 | -13.53570 | -71.93889 | 10822 ft | 102 kts | 276° |
| 2026-04-23 18:26 | -13.53515 | -71.94414 | 10844 ft | 55 kts | 277° |
| 2026-04-23 18:26 | -13.53483 | -71.94732 | 10858 ft | 41 kts | 278° |
| 2026-04-23 18:26 | -13.53527 | -71.94930 | 10869 ft | 24 kts | 214° |
| 2026-04-23 18:26 | -13.53610 | -71.94849 | 10866 ft | 16 kts | 95° |
| 2026-04-23 18:27 | -13.53622 | -71.94714 | 10859 ft | 20 kts | 97° |
| 2026-04-23 18:27 | -13.53640 | -71.94553 | 10850 ft | 24 kts | 96° |
| 2026-04-23 18:27 | -13.53717 | -71.94452 | 10846 ft | 11 kts | 126° |
| 2026-04-23 18:27 | -13.53723 | -71.94432 | 10846 ft | 7 kts | 115° |
| 2026-04-23 18:28 | -13.53740 | -71.94396 | 10844 ft | 0 kts | 120° |